createdAt,value
2018-09-29T00:00:05.966Z,99.90
2018-09-29T00:02:34.221Z,99.90
2018-09-29T00:05:02.503Z,99.90
2018-09-29T00:07:30.774Z,99.90
2018-09-29T00:09:59.086Z,99.90
2018-09-29T00:12:27.410Z,99.90
2018-09-29T00:14:55.657Z,99.90
2018-09-29T00:17:23.925Z,99.90
2018-09-29T00:19:52.179Z,99.90
2018-09-29T00:22:20.560Z,99.90
2018-09-29T00:24:48.943Z,99.90
2018-09-29T00:27:17.233Z,99.90
2018-09-29T00:29:45.495Z,99.90
2018-09-29T00:32:13.723Z,99.90
2018-09-29T00:34:41.986Z,99.90
2018-09-29T00:37:10.290Z,99.90
2018-09-29T00:39:38.583Z,99.90
2018-09-29T00:42:06.845Z,99.90
2018-09-29T00:44:35.113Z,99.90
2018-09-29T00:47:03.374Z,99.90
2018-09-29T00:49:31.624Z,99.90
2018-09-29T00:51:59.905Z,99.90
2018-09-29T00:54:28.214Z,99.90
2018-09-29T00:56:56.465Z,99.90
2018-09-29T00:59:24.775Z,99.90
2018-09-29T01:01:53.025Z,99.90
2018-09-29T01:04:21.304Z,99.90
2018-09-29T01:06:49.656Z,99.90
2018-09-29T01:09:17.938Z,99.90
2018-09-29T01:11:46.193Z,99.90
2018-09-29T01:14:14.681Z,99.90
2018-09-29T01:16:42.931Z,99.90
2018-09-29T01:19:11.165Z,99.90
2018-09-29T01:21:39.606Z,99.90
2018-09-29T01:24:07.890Z,99.90
2018-09-29T01:26:36.153Z,99.90
2018-09-29T01:29:04.395Z,99.90
2018-09-29T01:31:32.674Z,99.90
2018-09-29T01:34:00.946Z,99.90
2018-09-29T01:36:29.286Z,99.90
2018-09-29T01:38:57.529Z,99.90
2018-09-29T01:41:25.846Z,99.90
2018-09-29T01:43:54.102Z,99.90
2018-09-29T01:46:22.442Z,99.90
2018-09-29T01:48:50.726Z,99.90
2018-09-29T01:51:18.989Z,99.90
2018-09-29T01:53:47.225Z,99.90
2018-09-29T01:56:15.481Z,99.90
2018-09-29T01:58:43.726Z,99.90
2018-09-29T02:01:12.002Z,99.90
2018-09-29T02:03:40.273Z,99.90
2018-09-29T02:06:08.528Z,99.90
2018-09-29T02:08:37.247Z,99.90
2018-09-29T02:11:05.593Z,99.90
2018-09-29T02:13:33.834Z,99.90
2018-09-29T02:16:02.094Z,99.90
2018-09-29T02:18:30.369Z,99.90
2018-09-29T02:20:58.669Z,99.90
2018-09-29T02:23:26.925Z,99.90
2018-09-29T02:25:58.674Z,99.90
2018-09-29T02:28:26.972Z,99.90
2018-09-29T02:30:55.238Z,99.90
2018-09-29T02:33:23.580Z,99.90
2018-09-29T02:35:51.829Z,99.90
2018-09-29T02:38:20.069Z,99.90
2018-09-29T02:40:48.346Z,99.90
2018-09-29T02:43:16.786Z,99.90
2018-09-29T02:45:45.029Z,99.90
2018-09-29T02:48:13.310Z,99.90
2018-09-29T02:50:41.574Z,99.90
2018-09-29T02:53:09.837Z,99.90
2018-09-29T02:55:38.206Z,99.90
2018-09-29T02:58:06.559Z,99.90
2018-09-29T03:00:35.254Z,99.90
2018-09-29T03:03:03.606Z,99.90
2018-09-29T03:05:31.865Z,99.90
2018-09-29T03:08:00.113Z,99.90
2018-09-29T03:10:28.562Z,99.90
2018-09-29T03:12:56.818Z,99.90
2018-09-29T03:15:25.063Z,99.90
2018-09-29T03:17:53.354Z,99.90
2018-09-29T03:20:21.646Z,99.90
2018-09-29T03:22:49.903Z,99.90
2018-09-29T03:25:18.276Z,99.90
2018-09-29T03:27:46.524Z,99.90
2018-09-29T03:30:14.816Z,99.90
2018-09-29T03:32:43.145Z,99.90
2018-09-29T03:35:11.398Z,99.90
2018-09-29T03:37:39.799Z,99.90
2018-09-29T03:42:31.211Z,99.90
2018-09-29T03:44:59.569Z,99.90
2018-09-29T03:47:27.859Z,99.90
2018-09-29T03:49:56.269Z,99.90
2018-09-29T03:52:24.537Z,99.90
2018-09-29T03:54:52.823Z,99.90
2018-09-29T03:57:21.074Z,99.90
2018-09-29T03:59:49.338Z,99.90
2018-09-29T04:02:17.619Z,99.90
2018-09-29T04:04:46.057Z,99.90
2018-09-29T04:07:14.327Z,99.90
2018-09-29T04:09:42.607Z,99.90
2018-09-29T04:12:10.891Z,99.90
2018-09-29T04:14:39.133Z,99.90
2018-09-29T04:17:07.443Z,99.90
2018-09-29T04:19:35.784Z,99.90
2018-09-29T04:22:04.044Z,99.90
2018-09-29T04:24:32.255Z,99.90
2018-09-29T04:27:00.533Z,99.90
2018-09-29T04:29:28.785Z,99.90
2018-09-29T04:31:57.103Z,99.90
2018-09-29T04:34:25.357Z,99.90
2018-09-29T04:36:53.617Z,99.90
2018-09-29T04:39:21.909Z,99.90
2018-09-29T04:41:50.463Z,99.90
2018-09-29T04:44:18.862Z,99.90
2018-09-29T04:46:47.147Z,99.90
2018-09-29T04:49:15.523Z,99.90
2018-09-29T04:51:43.728Z,99.90
2018-09-29T04:54:11.976Z,99.90
2018-09-29T04:56:40.253Z,99.90
2018-09-29T04:59:08.553Z,99.90
2018-09-29T05:01:36.895Z,99.90
2018-09-29T05:04:05.322Z,99.90
2018-09-29T05:06:33.655Z,99.90
2018-09-29T05:09:01.874Z,99.90
2018-09-29T05:11:30.263Z,99.90
2018-09-29T05:13:58.818Z,99.90
2018-09-29T05:16:27.042Z,99.90
2018-09-29T05:18:55.281Z,99.90
2018-09-29T05:21:23.556Z,99.90
2018-09-29T05:23:51.932Z,99.90
2018-09-29T05:26:20.217Z,99.90
2018-09-29T05:28:48.509Z,99.90
2018-09-29T05:31:16.861Z,99.90
2018-09-29T05:33:46.016Z,99.90
2018-09-29T05:36:14.434Z,99.90
2018-09-29T05:38:43.048Z,99.90
2018-09-29T05:41:11.333Z,99.90
2018-09-29T05:43:39.818Z,99.90
2018-09-29T05:46:08.093Z,99.90
2018-09-29T05:48:36.389Z,99.90
2018-09-29T05:51:04.779Z,99.90
2018-09-29T05:53:33.123Z,99.90
2018-09-29T05:56:01.441Z,99.90
2018-09-29T05:58:29.713Z,99.90
2018-09-29T06:00:58.048Z,99.90
2018-09-29T06:03:26.460Z,99.90
2018-09-29T06:05:54.784Z,99.90
2018-09-29T06:08:23.004Z,99.90
2018-09-29T06:10:51.293Z,99.90
2018-09-29T06:13:19.844Z,99.90
2018-09-29T06:15:48.146Z,99.90
2018-09-29T06:18:16.428Z,99.90
2018-09-29T06:20:44.764Z,99.90
2018-09-29T06:23:13.285Z,99.90
2018-09-29T06:25:41.589Z,99.90
2018-09-29T06:28:09.872Z,99.90
2018-09-29T06:30:38.210Z,99.90
2018-09-29T06:33:06.709Z,99.90
2018-09-29T06:35:35.126Z,99.90
2018-09-29T06:38:04.928Z,99.90
2018-09-29T06:40:33.469Z,99.90
2018-09-29T06:43:01.995Z,99.90
2018-09-29T06:45:31.878Z,99.90
2018-09-29T06:48:02.279Z,99.90
2018-09-29T06:50:33.284Z,99.90
2018-09-29T06:53:03.203Z,99.90
2018-09-29T06:55:37.958Z,99.90
2018-09-29T06:58:06.426Z,99.90
2018-09-29T07:00:34.692Z,99.90
2018-09-29T07:03:03.148Z,99.90
2018-09-29T07:05:31.422Z,99.90
2018-09-29T07:07:59.796Z,99.90
2018-09-29T07:10:28.073Z,99.90
2018-09-29T07:12:57.495Z,99.90
2018-09-29T07:15:26.247Z,99.90
2018-09-29T07:17:54.575Z,99.90
2018-09-29T07:20:23.230Z,99.90
2018-09-29T07:22:51.526Z,99.90
2018-09-29T07:25:20.110Z,99.90
2018-09-29T07:27:48.606Z,99.90
2018-09-29T07:30:16.935Z,99.90
2018-09-29T07:32:45.257Z,99.90
2018-09-29T07:35:30.463Z,99.90
2018-09-29T07:38:00.302Z,99.90
2018-09-29T07:40:28.938Z,99.90
2018-09-29T07:42:57.429Z,99.90
2018-09-29T07:45:26.316Z,99.90
2018-09-29T07:47:55.709Z,99.90
2018-09-29T07:50:24.221Z,99.90
2018-09-29T07:52:52.483Z,99.90
2018-09-29T07:55:20.892Z,99.90
2018-09-29T07:57:52.978Z,99.90
2018-09-29T08:00:21.407Z,99.90
2018-09-29T08:02:49.691Z,99.90
2018-09-29T08:05:18.967Z,99.80
2018-09-29T08:07:47.274Z,99.40
2018-09-29T08:10:15.638Z,99.10
2018-09-29T08:12:43.954Z,99.30
2018-09-29T08:15:12.255Z,99.40
2018-09-29T08:17:40.527Z,99.40
2018-09-29T08:20:08.862Z,99.40
2018-09-29T08:22:37.194Z,98.50
2018-09-29T08:25:05.525Z,98.80
2018-09-29T08:27:33.910Z,98.20
2018-09-29T08:30:02.235Z,97.50
2018-09-29T08:32:30.474Z,96.90
2018-09-29T08:34:58.932Z,97.10
2018-09-29T08:37:27.455Z,96.90
2018-09-29T08:39:55.730Z,97.00
2018-09-29T08:42:24.180Z,97.00
2018-09-29T08:44:52.470Z,96.70
2018-09-29T08:47:20.771Z,95.80
2018-09-29T08:49:49.029Z,95.10
2018-09-29T08:52:17.330Z,94.90
2018-09-29T08:54:45.602Z,95.40
2018-09-29T08:57:13.933Z,95.00
2018-09-29T08:59:42.571Z,95.20
2018-09-29T09:02:10.846Z,94.60
2018-09-29T09:04:39.529Z,95.00
2018-09-29T09:07:12.078Z,94.00
2018-09-29T09:09:40.375Z,94.30
2018-09-29T09:12:08.756Z,93.10
2018-09-29T09:14:37.045Z,92.50
2018-09-29T09:17:05.665Z,93.00
2018-09-29T09:19:33.998Z,93.40
2018-09-29T09:22:02.342Z,92.90
2018-09-29T09:24:30.709Z,92.90
2018-09-29T09:27:00.362Z,93.30
2018-09-29T09:29:28.711Z,92.40
2018-09-29T09:31:57.605Z,91.80
2018-09-29T09:34:25.943Z,90.90
2018-09-29T09:36:54.217Z,91.00
2018-09-29T09:39:22.541Z,90.10
2018-09-29T09:41:50.814Z,90.70
2018-09-29T09:44:19.230Z,90.60
2018-09-29T09:46:47.503Z,89.20
2018-09-29T09:49:15.828Z,90.10
2018-09-29T09:51:44.143Z,89.20
2018-09-29T09:54:12.416Z,88.50
2018-09-29T09:56:40.799Z,87.00
2018-09-29T09:59:09.102Z,86.10
2018-09-29T10:01:42.746Z,85.20
2018-09-29T10:04:11.174Z,83.10
2018-09-29T10:06:39.477Z,83.50
2018-09-29T10:09:09.880Z,83.30
2018-09-29T10:11:38.210Z,83.10
2018-09-29T10:14:06.834Z,82.80
2018-09-29T10:16:35.408Z,83.00
2018-09-29T10:19:04.059Z,81.20
2018-09-29T10:21:32.451Z,82.70
2018-09-29T10:24:00.797Z,81.90
2018-09-29T10:26:29.093Z,82.30
2018-09-29T10:28:57.497Z,81.80
2018-09-29T10:31:26.051Z,79.50
2018-09-29T10:33:54.356Z,81.10
2018-09-29T10:36:22.619Z,79.70
2018-09-29T10:38:50.925Z,78.90
2018-09-29T10:41:19.353Z,78.40
2018-09-29T10:43:47.657Z,77.50
2018-09-29T10:46:15.930Z,77.20
2018-09-29T10:48:44.568Z,76.70
2018-09-29T10:51:13.058Z,76.30
2018-09-29T10:53:41.541Z,74.50
2018-09-29T10:56:09.829Z,75.10
2018-09-29T10:58:38.316Z,74.00
2018-09-29T11:01:08.729Z,72.90
2018-09-29T11:03:37.519Z,73.70
2018-09-29T11:06:05.828Z,74.80
2018-09-29T11:08:34.089Z,74.00
2018-09-29T11:11:02.391Z,73.90
2018-09-29T11:13:30.649Z,72.50
2018-09-29T11:15:58.993Z,71.10
2018-09-29T11:18:27.320Z,71.70
2018-09-29T11:20:55.617Z,71.30
2018-09-29T11:23:23.874Z,71.30
2018-09-29T11:25:52.295Z,71.30
2018-09-29T11:28:21.765Z,70.80
2018-09-29T11:30:50.317Z,69.50
2018-09-29T11:33:18.777Z,68.60
2018-09-29T11:35:47.185Z,69.00
2018-09-29T11:38:15.521Z,70.60
2018-09-29T11:40:43.817Z,68.60
2018-09-29T11:43:12.121Z,68.00
2018-09-29T11:45:40.416Z,68.70
2018-09-29T11:48:08.970Z,68.60
2018-09-29T11:50:37.276Z,68.30
2018-09-29T11:53:05.549Z,65.70
2018-09-29T11:55:33.805Z,65.10
2018-09-29T11:58:02.139Z,63.20
2018-09-29T12:00:30.458Z,62.30
2018-09-29T12:02:58.722Z,61.10
2018-09-29T12:05:27.082Z,60.90
2018-09-29T12:07:55.379Z,60.30
2018-09-29T12:10:23.692Z,59.50
2018-09-29T12:12:52.058Z,58.60
2018-09-29T12:15:21.332Z,60.70
2018-09-29T12:17:49.677Z,63.20
2018-09-29T12:20:17.946Z,61.70
2018-09-29T12:22:46.190Z,62.00
2018-09-29T12:25:14.461Z,62.40
2018-09-29T12:27:42.762Z,60.80
2018-09-29T12:30:11.443Z,59.00
2018-09-29T12:32:39.799Z,59.10
2018-09-29T12:35:08.217Z,56.70
2018-09-29T12:37:36.660Z,57.50
2018-09-29T12:40:05.061Z,58.00
2018-09-29T12:42:33.467Z,56.90
2018-09-29T12:45:01.683Z,58.40
2018-09-29T12:47:30.062Z,58.00
2018-09-29T12:49:58.582Z,58.10
2018-09-29T12:52:27.041Z,57.60
2018-09-29T12:54:56.156Z,57.30
2018-09-29T12:57:24.424Z,57.40
2018-09-29T12:59:52.829Z,57.40
2018-09-29T13:02:21.220Z,57.30
2018-09-29T13:04:49.596Z,56.80
2018-09-29T13:07:18.967Z,56.80
2018-09-29T13:09:47.289Z,54.70
2018-09-29T13:12:15.566Z,50.50
2018-09-29T13:14:44.659Z,51.30
2018-09-29T13:17:12.970Z,53.40
2018-09-29T13:19:41.297Z,53.00
2018-09-29T13:22:09.563Z,51.40
2018-09-29T13:24:37.862Z,52.90
2018-09-29T13:27:06.472Z,53.10
2018-09-29T13:29:34.827Z,54.50
2018-09-29T13:32:03.349Z,54.20
2018-09-29T13:34:31.607Z,53.90
2018-09-29T13:36:59.965Z,54.50
2018-09-29T13:39:29.500Z,54.00
2018-09-29T13:41:57.826Z,54.40
2018-09-29T13:44:26.176Z,53.80
2018-09-29T13:46:58.087Z,54.30
2018-09-29T13:49:27.934Z,53.50
2018-09-29T13:51:56.315Z,54.70
2018-09-29T13:54:28.413Z,53.10
2018-09-29T13:57:07.003Z,53.30
2018-09-29T13:59:46.762Z,52.10
2018-09-29T14:02:19.310Z,54.20
2018-09-29T14:04:49.555Z,52.50
2018-09-29T14:10:12.939Z,51.80
2018-09-29T14:12:41.216Z,52.60
2018-09-29T14:15:09.555Z,52.90
2018-09-29T14:17:38.725Z,52.80
2018-09-29T14:20:07.443Z,51.20
2018-09-29T14:22:35.802Z,52.50
2018-09-29T14:25:04.131Z,51.60
2018-09-29T14:27:32.443Z,52.10
2018-09-29T14:30:00.860Z,52.10
2018-09-29T14:32:30.244Z,51.50
2018-09-29T14:34:58.787Z,50.90
2018-09-29T14:37:27.276Z,50.80
2018-09-29T14:39:55.680Z,52.30
2018-09-29T14:42:24.065Z,52.00
2018-09-29T14:44:52.421Z,52.60
2018-09-29T14:47:20.756Z,52.00
2018-09-29T14:49:50.978Z,51.80
2018-09-29T14:52:19.357Z,51.60
2018-09-29T14:54:47.851Z,52.00
2018-09-29T14:57:16.162Z,52.30
2018-09-29T14:59:44.539Z,50.90
2018-09-29T15:02:12.947Z,51.70
2018-09-29T15:04:41.231Z,51.00
2018-09-29T15:07:09.577Z,52.10
2018-09-29T15:09:37.915Z,51.50
2018-09-29T15:12:06.259Z,52.30
2018-09-29T15:14:34.584Z,52.70
2018-09-29T15:17:03.073Z,53.00
2018-09-29T15:19:31.442Z,52.00
2018-09-29T15:21:59.783Z,52.60
2018-09-29T15:24:28.247Z,52.90
2018-09-29T15:26:56.660Z,53.00
2018-09-29T15:29:25.122Z,53.50
2018-09-29T15:31:53.442Z,54.20
2018-09-29T15:34:21.766Z,54.40
2018-09-29T15:36:50.186Z,53.80
2018-09-29T15:39:18.530Z,52.80
2018-09-29T15:41:49.062Z,52.60
2018-09-29T15:44:17.505Z,53.20
2018-09-29T15:46:45.919Z,52.70
2018-09-29T15:49:14.256Z,54.00
2018-09-29T15:51:42.610Z,53.90
2018-09-29T15:54:11.251Z,54.70
2018-09-29T15:56:39.854Z,56.10
2018-09-29T15:59:08.130Z,54.10
2018-09-29T16:01:36.582Z,53.90
2018-09-29T16:04:04.950Z,53.60
2018-09-29T16:06:33.271Z,54.40
2018-09-29T16:09:01.670Z,55.70
2018-09-29T16:11:29.913Z,58.30
2018-09-29T16:13:58.237Z,56.40
2018-09-29T16:16:26.575Z,55.90
2018-09-29T16:18:54.875Z,59.00
2018-09-29T16:21:23.337Z,60.20
2018-09-29T16:23:51.805Z,63.80
2018-09-29T16:26:20.143Z,64.90
2018-09-29T16:28:48.493Z,62.20
2018-09-29T16:31:18.003Z,63.00
2018-09-29T16:33:46.279Z,63.70
2018-09-29T16:36:14.603Z,64.50
2018-09-29T16:38:43.266Z,65.30
2018-09-29T16:41:11.672Z,66.90
2018-09-29T16:43:40.060Z,68.80
2018-09-29T16:46:09.242Z,70.00
2018-09-29T16:48:37.577Z,71.80
2018-09-29T16:51:05.891Z,74.60
2018-09-29T16:53:34.307Z,77.20
2018-09-29T16:56:02.605Z,79.80
2018-09-29T16:58:30.905Z,81.00
2018-09-29T17:01:00.213Z,81.70
2018-09-29T17:03:28.617Z,83.00
2018-09-29T17:05:56.893Z,85.30
2018-09-29T17:08:25.293Z,84.40
2018-09-29T17:10:53.615Z,86.00
2018-09-29T17:13:21.958Z,86.90
2018-09-29T17:15:50.428Z,86.50
2018-09-29T17:18:18.676Z,86.80
2018-09-29T17:20:47.132Z,88.20
2018-09-29T17:23:16.435Z,88.10
2018-09-29T17:25:44.775Z,88.20
2018-09-29T17:28:13.062Z,89.30
2018-09-29T17:30:41.449Z,89.70
2018-09-29T17:33:11.101Z,89.90
2018-09-29T17:35:39.394Z,90.00
2018-09-29T17:38:11.417Z,90.40
2018-09-29T17:40:39.698Z,91.30
2018-09-29T17:43:08.176Z,91.90
2018-09-29T17:45:36.518Z,93.00
2018-09-29T17:48:04.914Z,91.80
2018-09-29T17:50:33.326Z,92.80
2018-09-29T17:53:01.834Z,93.40
2018-09-29T17:55:30.286Z,93.30
2018-09-29T17:57:58.627Z,93.20
2018-09-29T18:00:26.990Z,94.10
2018-09-29T18:02:55.378Z,93.90
2018-09-29T18:05:23.840Z,94.20
2018-09-29T18:07:52.338Z,94.30
2018-09-29T18:10:20.696Z,94.30
2018-09-29T18:12:49.076Z,94.50
2018-09-29T18:15:17.498Z,94.70
2018-09-29T18:17:45.960Z,94.90
2018-09-29T18:20:14.352Z,95.00
2018-09-29T18:22:42.716Z,95.20
2018-09-29T18:25:11.410Z,95.70
2018-09-29T18:27:39.880Z,95.40
2018-09-29T18:30:08.290Z,95.90
2018-09-29T18:32:36.671Z,95.60
2018-09-29T18:35:05.191Z,95.90
2018-09-29T18:37:33.519Z,96.40
2018-09-29T18:40:01.934Z,96.40
2018-09-29T18:42:30.333Z,97.10
2018-09-29T18:44:58.794Z,96.00
2018-09-29T18:47:27.071Z,95.80
2018-09-29T18:49:55.558Z,95.80
2018-09-29T18:52:24.274Z,95.10
2018-09-29T18:54:52.758Z,95.10
2018-09-29T18:57:21.187Z,95.60
2018-09-29T18:59:49.591Z,95.80
2018-09-29T19:02:18.007Z,95.70
2018-09-29T19:04:46.484Z,95.90
2018-09-29T19:07:14.990Z,96.10
2018-09-29T19:09:43.423Z,96.80
2018-09-29T19:12:11.793Z,97.20
2018-09-29T19:14:40.196Z,96.60
2018-09-29T19:17:08.561Z,97.20
2018-09-29T19:19:37.020Z,97.40
2018-09-29T19:22:05.395Z,97.50
2018-09-29T19:24:33.798Z,96.90
2018-09-29T19:27:02.193Z,96.80
2018-09-29T19:29:30.552Z,97.40
2018-09-29T19:31:58.919Z,97.00
2018-09-29T19:34:27.275Z,97.40
2018-09-29T19:36:55.699Z,97.40
2018-09-29T19:39:24.246Z,97.50
2018-09-29T19:41:52.647Z,97.60
2018-09-29T19:44:20.988Z,97.40
2018-09-29T19:46:49.327Z,97.50
2018-09-29T19:49:18.192Z,98.10
2018-09-29T19:51:46.776Z,97.80
2018-09-29T19:54:15.078Z,98.00
2018-09-29T19:56:43.334Z,98.40
2018-09-29T19:59:11.610Z,98.40
2018-09-29T20:01:39.937Z,98.60
2018-09-29T20:04:08.187Z,98.70
2018-09-29T20:06:36.537Z,98.50
2018-09-29T20:09:07.190Z,98.50
2018-09-29T20:11:35.461Z,98.70
2018-09-29T20:14:03.706Z,98.40
2018-09-29T20:16:33.653Z,99.00
2018-09-29T20:19:02.137Z,98.50
2018-09-29T20:21:30.387Z,99.10
2018-09-29T20:23:58.910Z,99.00
2018-09-29T20:26:27.170Z,99.00
2018-09-29T20:28:55.436Z,99.10
2018-09-29T20:31:23.702Z,99.00
2018-09-29T20:33:52.004Z,99.20
2018-09-29T20:36:20.278Z,99.40
2018-09-29T20:38:48.702Z,99.50
2018-09-29T20:41:16.974Z,99.90
2018-09-29T20:43:45.237Z,99.80
2018-09-29T20:46:14.645Z,99.90
2018-09-29T20:48:43.021Z,99.90
2018-09-29T20:51:11.570Z,99.90
2018-09-29T20:53:40.350Z,99.90
2018-09-29T20:56:08.834Z,99.90
2018-09-29T20:58:37.377Z,99.90
2018-09-29T21:01:06.415Z,99.90
2018-09-29T21:03:34.730Z,99.90
2018-09-29T21:06:03.339Z,99.90
2018-09-29T21:08:31.683Z,99.90
2018-09-29T21:10:59.992Z,99.90
2018-09-29T21:13:28.663Z,99.90
2018-09-29T21:15:57.440Z,99.90
2018-09-29T21:18:25.852Z,99.90
2018-09-29T21:20:54.267Z,99.90
2018-09-29T21:23:22.582Z,99.90
2018-09-29T21:25:50.874Z,99.90
2018-09-29T21:28:19.323Z,99.90
2018-09-29T21:30:47.933Z,99.90
2018-09-29T21:33:16.250Z,99.90
2018-09-29T21:35:44.525Z,99.90
2018-09-29T21:38:12.816Z,99.90
2018-09-29T21:40:41.090Z,99.90
2018-09-29T21:43:09.437Z,99.90
2018-09-29T21:45:37.804Z,99.90
2018-09-29T21:48:06.144Z,99.90
2018-09-29T21:50:34.462Z,99.90
2018-09-29T21:53:02.815Z,99.90
2018-09-29T21:55:31.593Z,99.90
2018-09-29T21:57:59.927Z,99.90
2018-09-29T22:00:33.831Z,99.90
2018-09-29T22:03:02.130Z,99.90
2018-09-29T22:05:31.143Z,99.90
2018-09-29T22:07:59.638Z,99.90
2018-09-29T22:10:27.963Z,99.90
2018-09-29T22:12:56.234Z,99.90
2018-09-29T22:15:24.547Z,99.90
2018-09-29T22:17:52.858Z,99.90
2018-09-29T22:20:21.095Z,99.90
2018-09-29T22:22:50.256Z,99.90
2018-09-29T22:25:18.569Z,99.90
2018-09-29T22:27:46.856Z,99.90
2018-09-29T22:30:15.221Z,99.90
2018-09-29T22:32:43.497Z,99.90
2018-09-29T22:35:11.785Z,99.90
2018-09-29T22:37:40.139Z,99.90
2018-09-29T22:40:08.481Z,99.90
2018-09-29T22:42:36.815Z,99.90
2018-09-29T22:45:05.135Z,99.90
2018-09-29T22:47:33.499Z,99.90
2018-09-29T22:50:01.797Z,99.90
2018-09-29T22:52:30.066Z,99.90
2018-09-29T22:54:58.347Z,99.90
2018-09-29T22:57:26.965Z,99.90
2018-09-29T22:59:55.189Z,99.90
2018-09-29T23:02:23.462Z,99.90
2018-09-29T23:04:51.725Z,99.90
2018-09-29T23:07:20.040Z,99.90
2018-09-29T23:09:48.322Z,99.90
2018-09-29T23:12:16.590Z,99.90
2018-09-29T23:14:45.254Z,99.90
2018-09-29T23:17:13.543Z,99.90
2018-09-29T23:19:41.892Z,99.90
2018-09-29T23:22:10.178Z,99.90
2018-09-29T23:24:38.877Z,99.90
2018-09-29T23:27:07.157Z,99.90
2018-09-29T23:29:35.453Z,99.90
2018-09-29T23:32:03.765Z,99.90
2018-09-29T23:34:32.126Z,99.90
2018-09-29T23:37:00.376Z,99.90
2018-09-29T23:39:37.066Z,99.90
2018-09-29T23:42:05.412Z,99.90
2018-09-29T23:44:33.705Z,99.90
2018-09-29T23:47:02.030Z,99.90
2018-09-29T23:49:30.542Z,99.90
2018-09-29T23:51:58.983Z,99.90
2018-09-29T23:54:27.293Z,99.90
2018-09-29T23:56:55.619Z,99.90
2018-09-29T23:59:23.885Z,99.90
